sensor_id;sensor_type;location;lat;lon;timestamp;temperature;humidity
38582;DHT22;24349;53.720;10.014;2022-09-12T00:01:22;13.20;99.90
38582;DHT22;24349;53.720;10.014;2022-09-12T00:03:57;13.10;99.90
38582;DHT22;24349;53.720;10.014;2022-09-12T00:06:34;12.90;99.90
38582;DHT22;24349;53.720;10.014;2022-09-12T00:09:04;13.00;99.90
38582;DHT22;24349;53.720;10.014;2022-09-12T00:11:30;12.90;99.90
38582;DHT22;24349;53.720;10.014;2022-09-12T00:13:59;12.80;99.90
38582;DHT22;24349;53.720;10.014;2022-09-12T00:16:26;12.90;99.90
38582;DHT22;24349;53.720;10.014;2022-09-12T00:18:52;12.80;99.90
38582;DHT22;24349;53.720;10.014;2022-09-12T00:21:19;12.70;99.90
38582;DHT22;24349;53.720;10.014;2022-09-12T00:23:46;12.70;99.90
38582;DHT22;24349;53.720;10.014;2022-09-12T00:26:12;12.70;99.90
38582;DHT22;24349;53.720;10.014;2022-09-12T00:28:39;12.80;99.90
38582;DHT22;24349;53.720;10.014;2022-09-12T00:31:12;12.70;99.90
38582;DHT22;24349;53.720;10.014;2022-09-12T00:33:38;12.60;99.90
38582;DHT22;24349;53.720;10.014;2022-09-12T00:36:08;12.70;99.90
38582;DHT22;24349;53.720;10.014;2022-09-12T00:38:34;12.70;99.90
38582;DHT22;24349;53.720;10.014;2022-09-12T00:41:04;12.60;99.90
38582;DHT22;24349;53.720;10.014;2022-09-12T00:46:02;12.50;99.90
38582;DHT22;24349;53.720;10.014;2022-09-12T00:48:42;12.60;99.90
38582;DHT22;24349;53.720;10.014;2022-09-12T00:51:09;12.60;99.90
38582;DHT22;24349;53.720;10.014;2022-09-12T00:53:35;12.50;99.90
38582;DHT22;24349;53.720;10.014;2022-09-12T00:56:02;12.50;99.90
38582;DHT22;24349;53.720;10.014;2022-09-12T00:58:33;12.40;99.90
38582;DHT22;24349;53.720;10.014;2022-09-12T01:01:00;12.30;99.90
38582;DHT22;24349;53.720;10.014;2022-09-12T01:03:26;12.40;99.90
38582;DHT22;24349;53.720;10.014;2022-09-12T01:06:12;12.40;99.90
38582;DHT22;24349;53.720;10.014;2022-09-12T01:08:42;12.30;99.90
38582;DHT22;24349;53.720;10.014;2022-09-12T01:11:08;12.40;99.90
38582;DHT22;24349;53.720;10.014;2022-09-12T01:13:36;12.30;99.90
38582;DHT22;24349;53.720;10.014;2022-09-12T01:16:06;12.40;99.90
38582;DHT22;24349;53.720;10.014;2022-09-12T01:18:54;12.30;99.90
38582;DHT22;24349;53.720;10.014;2022-09-12T01:27:14;12.40;99.90
38582;DHT22;24349;53.720;10.014;2022-09-12T01:41:08;12.30;99.90
38582;DHT22;24349;53.720;10.014;2022-09-12T01:46:56;12.10;99.90
38582;DHT22;24349;53.720;10.014;2022-09-12T01:49:12;12.20;99.90
38582;DHT22;24349;53.720;10.014;2022-09-12T01:54:16;12.20;99.90
38582;DHT22;24349;53.720;10.014;2022-09-12T01:56:47;12.20;99.90
38582;DHT22;24349;53.720;10.014;2022-09-12T01:59:26;12.10;99.90
38582;DHT22;24349;53.720;10.014;2022-09-12T02:02:11;12.10;99.90
38582;DHT22;24349;53.720;10.014;2022-09-12T02:04:55;12.10;99.90
38582;DHT22;24349;53.720;10.014;2022-09-12T02:07:42;12.10;99.90
38582;DHT22;24349;53.720;10.014;2022-09-12T02:10:18;12.10;99.90
38582;DHT22;24349;53.720;10.014;2022-09-12T02:13:02;11.90;99.90
38582;DHT22;24349;53.720;10.014;2022-09-12T02:15:37;11.80;99.90
38582;DHT22;24349;53.720;10.014;2022-09-12T02:18:04;11.90;99.90
38582;DHT22;24349;53.720;10.014;2022-09-12T02:20:34;11.90;99.90
38582;DHT22;24349;53.720;10.014;2022-09-12T02:23:05;11.90;99.90
38582;DHT22;24349;53.720;10.014;2022-09-12T02:25:33;11.90;99.90
38582;DHT22;24349;53.720;10.014;2022-09-12T02:28:12;11.90;99.90
38582;DHT22;24349;53.720;10.014;2022-09-12T02:30:55;11.90;99.90
38582;DHT22;24349;53.720;10.014;2022-09-12T02:33:29;11.90;99.90
38582;DHT22;24349;53.720;10.014;2022-09-12T02:38:57;11.80;99.90
38582;DHT22;24349;53.720;10.014;2022-09-12T02:41:24;11.70;99.90
38582;DHT22;24349;53.720;10.014;2022-09-12T02:43:50;11.80;99.90
38582;DHT22;24349;53.720;10.014;2022-09-12T02:46:22;11.70;99.90
38582;DHT22;24349;53.720;10.014;2022-09-12T02:48:49;11.70;99.90
38582;DHT22;24349;53.720;10.014;2022-09-12T02:51:15;11.70;99.90
38582;DHT22;24349;53.720;10.014;2022-09-12T02:53:41;11.70;99.90
38582;DHT22;24349;53.720;10.014;2022-09-12T02:56:10;11.60;99.90
38582;DHT22;24349;53.720;10.014;2022-09-12T02:58:37;11.60;99.90
38582;DHT22;24349;53.720;10.014;2022-09-12T03:03:56;11.70;99.90
38582;DHT22;24349;53.720;10.014;2022-09-12T03:09:17;11.60;99.90
38582;DHT22;24349;53.720;10.014;2022-09-12T03:20:46;11.70;99.90
38582;DHT22;24349;53.720;10.014;2022-09-12T03:28:56;11.70;99.90
38582;DHT22;24349;53.720;10.014;2022-09-12T03:31:24;11.70;99.90
38582;DHT22;24349;53.720;10.014;2022-09-12T03:33:50;11.60;99.90
38582;DHT22;24349;53.720;10.014;2022-09-12T03:36:20;11.60;99.90
38582;DHT22;24349;53.720;10.014;2022-09-12T03:38:46;11.50;99.90
38582;DHT22;24349;53.720;10.014;2022-09-12T03:41:12;11.40;99.90
38582;DHT22;24349;53.720;10.014;2022-09-12T03:43:38;11.40;99.90
38582;DHT22;24349;53.720;10.014;2022-09-12T03:46:03;11.40;99.90
38582;DHT22;24349;53.720;10.014;2022-09-12T03:48:29;11.40;99.90
38582;DHT22;24349;53.720;10.014;2022-09-12T03:51:03;11.50;99.90
38582;DHT22;24349;53.720;10.014;2022-09-12T03:53:29;11.50;99.90
38582;DHT22;24349;53.720;10.014;2022-09-12T03:55:56;11.50;99.90
38582;DHT22;24349;53.720;10.014;2022-09-12T03:58:22;11.40;99.90
38582;DHT22;24349;53.720;10.014;2022-09-12T04:00:48;11.40;99.90
38582;DHT22;24349;53.720;10.014;2022-09-12T04:03:14;11.40;99.90
38582;DHT22;24349;53.720;10.014;2022-09-12T04:05:39;11.40;99.90
38582;DHT22;24349;53.720;10.014;2022-09-12T04:08:05;11.40;99.90
38582;DHT22;24349;53.720;10.014;2022-09-12T04:10:31;11.40;99.90
38582;DHT22;24349;53.720;10.014;2022-09-12T04:12:57;11.40;99.90
38582;DHT22;24349;53.720;10.014;2022-09-12T04:15:22;11.30;99.90
38582;DHT22;24349;53.720;10.014;2022-09-12T04:17:48;11.30;99.90
38582;DHT22;24349;53.720;10.014;2022-09-12T04:20:14;11.30;99.90
38582;DHT22;24349;53.720;10.014;2022-09-12T04:22:40;11.20;99.90
38582;DHT22;24349;53.720;10.014;2022-09-12T04:25:06;11.20;99.90
38582;DHT22;24349;53.720;10.014;2022-09-12T04:27:32;11.30;99.90
38582;DHT22;24349;53.720;10.014;2022-09-12T04:29:59;11.30;99.90
38582;DHT22;24349;53.720;10.014;2022-09-12T04:32:27;11.30;99.90
38582;DHT22;24349;53.720;10.014;2022-09-12T04:34:53;11.30;99.90
38582;DHT22;24349;53.720;10.014;2022-09-12T04:37:19;11.30;99.90
38582;DHT22;24349;53.720;10.014;2022-09-12T04:39:45;11.30;99.90
38582;DHT22;24349;53.720;10.014;2022-09-12T04:42:13;11.20;99.90
38582;DHT22;24349;53.720;10.014;2022-09-12T04:44:39;11.20;99.90
38582;DHT22;24349;53.720;10.014;2022-09-12T04:47:04;11.20;99.90
38582;DHT22;24349;53.720;10.014;2022-09-12T04:49:30;11.20;99.90
38582;DHT22;24349;53.720;10.014;2022-09-12T04:51:56;11.20;99.90
38582;DHT22;24349;53.720;10.014;2022-09-12T04:54:21;11.20;99.90
38582;DHT22;24349;53.720;10.014;2022-09-12T04:56:48;11.20;99.90
38582;DHT22;24349;53.720;10.014;2022-09-12T04:59:16;11.20;99.90
38582;DHT22;24349;53.720;10.014;2022-09-12T05:01:42;11.20;99.90
38582;DHT22;24349;53.720;10.014;2022-09-12T05:04:12;11.30;99.90
38582;DHT22;24349;53.720;10.014;2022-09-12T05:06:38;11.30;99.90
38582;DHT22;24349;53.720;10.014;2022-09-12T05:09:06;11.30;99.90
38582;DHT22;24349;53.720;10.014;2022-09-12T05:11:35;11.30;99.90
38582;DHT22;24349;53.720;10.014;2022-09-12T05:14:02;11.30;99.90
38582;DHT22;24349;53.720;10.014;2022-09-12T05:16:28;11.30;99.90
38582;DHT22;24349;53.720;10.014;2022-09-12T05:18:55;11.40;99.90
38582;DHT22;24349;53.720;10.014;2022-09-12T05:21:23;11.40;99.90
38582;DHT22;24349;53.720;10.014;2022-09-12T05:23:53;11.50;99.90
38582;DHT22;24349;53.720;10.014;2022-09-12T05:26:20;11.50;99.90
38582;DHT22;24349;53.720;10.014;2022-09-12T05:28:47;11.50;99.90
38582;DHT22;24349;53.720;10.014;2022-09-12T05:31:21;11.50;99.90
38582;DHT22;24349;53.720;10.014;2022-09-12T05:33:49;11.50;99.90
38582;DHT22;24349;53.720;10.014;2022-09-12T05:36:20;11.50;99.90
38582;DHT22;24349;53.720;10.014;2022-09-12T05:38:47;11.60;99.90
38582;DHT22;24349;53.720;10.014;2022-09-12T05:41:21;11.70;99.90
38582;DHT22;24349;53.720;10.014;2022-09-12T05:43:51;11.90;99.90
38582;DHT22;24349;53.720;10.014;2022-09-12T05:46:18;12.00;99.90
38582;DHT22;24349;53.720;10.014;2022-09-12T05:48:45;12.20;99.90
38582;DHT22;24349;53.720;10.014;2022-09-12T05:51:20;12.40;99.90
38582;DHT22;24349;53.720;10.014;2022-09-12T05:53:57;12.90;99.90
38582;DHT22;24349;53.720;10.014;2022-09-12T05:56:31;13.50;99.90
38582;DHT22;24349;53.720;10.014;2022-09-12T05:59:03;13.80;99.90
38582;DHT22;24349;53.720;10.014;2022-09-12T06:01:30;14.00;99.90
38582;DHT22;24349;53.720;10.014;2022-09-12T06:03:58;14.00;99.90
38582;DHT22;24349;53.720;10.014;2022-09-12T06:06:26;14.20;99.90
38582;DHT22;24349;53.720;10.014;2022-09-12T06:08:55;14.30;99.90
38582;DHT22;24349;53.720;10.014;2022-09-12T06:11:23;14.80;99.90
38582;DHT22;24349;53.720;10.014;2022-09-12T06:13:51;15.30;99.90
38582;DHT22;24349;53.720;10.014;2022-09-12T06:16:28;15.60;99.90
38582;DHT22;24349;53.720;10.014;2022-09-12T06:18:56;15.80;99.90
38582;DHT22;24349;53.720;10.014;2022-09-12T06:21:23;16.10;99.90
38582;DHT22;24349;53.720;10.014;2022-09-12T06:23:49;16.30;99.90
38582;DHT22;24349;53.720;10.014;2022-09-12T06:26:17;16.20;99.90
38582;DHT22;24349;53.720;10.014;2022-09-12T06:28:45;15.90;99.90
38582;DHT22;24349;53.720;10.014;2022-09-12T06:31:17;16.00;99.90
38582;DHT22;24349;53.720;10.014;2022-09-12T06:33:46;16.60;99.90
38582;DHT22;24349;53.720;10.014;2022-09-12T06:36:17;16.60;99.90
38582;DHT22;24349;53.720;10.014;2022-09-12T06:38:43;16.80;99.90
38582;DHT22;24349;53.720;10.014;2022-09-12T06:41:14;17.20;99.90
38582;DHT22;24349;53.720;10.014;2022-09-12T06:43:40;17.60;99.90
38582;DHT22;24349;53.720;10.014;2022-09-12T06:46:07;17.40;99.90
38582;DHT22;24349;53.720;10.014;2022-09-12T06:48:33;17.80;99.90
38582;DHT22;24349;53.720;10.014;2022-09-12T06:51:14;18.30;99.90
38582;DHT22;24349;53.720;10.014;2022-09-12T06:53:40;18.50;99.90
38582;DHT22;24349;53.720;10.014;2022-09-12T06:56:13;19.00;99.90
38582;DHT22;24349;53.720;10.014;2022-09-12T06:58:40;19.50;99.90
38582;DHT22;24349;53.720;10.014;2022-09-12T07:01:14;19.80;99.90
38582;DHT22;24349;53.720;10.014;2022-09-12T07:03:40;20.10;99.90
38582;DHT22;24349;53.720;10.014;2022-09-12T07:06:09;20.40;99.90
38582;DHT22;24349;53.720;10.014;2022-09-12T07:08:35;20.30;99.90
38582;DHT22;24349;53.720;10.014;2022-09-12T07:11:29;20.70;99.90
38582;DHT22;24349;53.720;10.014;2022-09-12T07:13:58;21.10;99.90
38582;DHT22;24349;53.720;10.014;2022-09-12T07:16:24;21.50;99.90
38582;DHT22;24349;53.720;10.014;2022-09-12T07:18:55;21.60;99.90
38582;DHT22;24349;53.720;10.014;2022-09-12T07:21:22;21.50;99.90
38582;DHT22;24349;53.720;10.014;2022-09-12T07:23:48;21.30;99.90
38582;DHT22;24349;53.720;10.014;2022-09-12T07:26:15;21.30;99.90
38582;DHT22;24349;53.720;10.014;2022-09-12T07:28:41;21.70;99.90
38582;DHT22;24349;53.720;10.014;2022-09-12T07:31:12;21.90;99.90
38582;DHT22;24349;53.720;10.014;2022-09-12T07:33:39;21.80;99.90
38582;DHT22;24349;53.720;10.014;2022-09-12T07:36:06;21.90;99.90
38582;DHT22;24349;53.720;10.014;2022-09-12T07:38:33;21.50;99.90
38582;DHT22;24349;53.720;10.014;2022-09-12T07:40:59;21.10;99.90
38582;DHT22;24349;53.720;10.014;2022-09-12T07:43:26;21.00;99.90
38582;DHT22;24349;53.720;10.014;2022-09-12T07:45:57;20.90;99.90
38582;DHT22;24349;53.720;10.014;2022-09-12T07:48:23;21.10;99.90
38582;DHT22;24349;53.720;10.014;2022-09-12T07:51:00;21.80;99.90
38582;DHT22;24349;53.720;10.014;2022-09-12T07:53:46;21.80;99.90
38582;DHT22;24349;53.720;10.014;2022-09-12T07:56:14;21.80;99.90
38582;DHT22;24349;53.720;10.014;2022-09-12T07:58:41;21.40;99.90
38582;DHT22;24349;53.720;10.014;2022-09-12T08:01:13;20.90;99.90
38582;DHT22;24349;53.720;10.014;2022-09-12T08:03:39;21.30;99.90
38582;DHT22;24349;53.720;10.014;2022-09-12T08:06:08;21.50;99.90
38582;DHT22;24349;53.720;10.014;2022-09-12T08:08:34;21.30;99.90
38582;DHT22;24349;53.720;10.014;2022-09-12T08:11:03;22.00;99.90
38582;DHT22;24349;53.720;10.014;2022-09-12T08:13:31;22.80;99.90
38582;DHT22;24349;53.720;10.014;2022-09-12T08:15:58;22.90;99.90
38582;DHT22;24349;53.720;10.014;2022-09-12T08:18:26;22.60;99.90
38582;DHT22;24349;53.720;10.014;2022-09-12T08:21:00;22.70;99.90
38582;DHT22;24349;53.720;10.014;2022-09-12T08:23:27;23.20;99.90
38582;DHT22;24349;53.720;10.014;2022-09-12T08:25:59;23.80;99.90
38582;DHT22;24349;53.720;10.014;2022-09-12T08:28:26;22.60;99.90
38582;DHT22;24349;53.720;10.014;2022-09-12T08:30:52;21.90;99.90
38582;DHT22;24349;53.720;10.014;2022-09-12T08:33:19;22.20;99.90
38582;DHT22;24349;53.720;10.014;2022-09-12T08:35:45;22.10;99.90
38582;DHT22;24349;53.720;10.014;2022-09-12T08:38:11;21.70;99.90
38582;DHT22;24349;53.720;10.014;2022-09-12T08:40:51;21.30;99.90
38582;DHT22;24349;53.720;10.014;2022-09-12T08:43:31;21.10;99.90
38582;DHT22;24349;53.720;10.014;2022-09-12T08:46:12;21.30;99.90
38582;DHT22;24349;53.720;10.014;2022-09-12T08:48:44;22.00;99.90
38582;DHT22;24349;53.720;10.014;2022-09-12T08:51:14;22.00;99.90
38582;DHT22;24349;53.720;10.014;2022-09-12T08:53:41;22.00;99.90
38582;DHT22;24349;53.720;10.014;2022-09-12T08:56:08;22.50;99.90
38582;DHT22;24349;53.720;10.014;2022-09-12T08:58:39;22.10;99.90
38582;DHT22;24349;53.720;10.014;2022-09-12T09:01:27;21.80;99.90
38582;DHT22;24349;53.720;10.014;2022-09-12T09:04:20;21.20;99.90
38582;DHT22;24349;53.720;10.014;2022-09-12T09:17:48;21.80;99.90
38582;DHT22;24349;53.720;10.014;2022-09-12T09:20:34;22.40;99.90
38582;DHT22;24349;53.720;10.014;2022-09-12T09:23:13;22.50;99.90
38582;DHT22;24349;53.720;10.014;2022-09-12T09:25:43;22.20;99.90
38582;DHT22;24349;53.720;10.014;2022-09-12T09:30:44;23.00;99.90
38582;DHT22;24349;53.720;10.014;2022-09-12T09:33:27;22.80;99.90
38582;DHT22;24349;53.720;10.014;2022-09-12T09:36:16;22.80;99.90
38582;DHT22;24349;53.720;10.014;2022-09-12T09:43:55;21.50;99.90
38582;DHT22;24349;53.720;10.014;2022-09-12T09:46:22;21.90;99.90
38582;DHT22;24349;53.720;10.014;2022-09-12T09:48:50;22.30;99.90
38582;DHT22;24349;53.720;10.014;2022-09-12T09:51:22;22.80;99.90
38582;DHT22;24349;53.720;10.014;2022-09-12T09:53:55;22.50;99.90
38582;DHT22;24349;53.720;10.014;2022-09-12T09:56:35;22.40;99.90
38582;DHT22;24349;53.720;10.014;2022-09-12T09:59:32;22.50;99.90
38582;DHT22;24349;53.720;10.014;2022-09-12T10:02:17;23.20;99.90
38582;DHT22;24349;53.720;10.014;2022-09-12T10:04:56;22.90;99.90
38582;DHT22;24349;53.720;10.014;2022-09-12T10:07:22;22.80;99.90
38582;DHT22;24349;53.720;10.014;2022-09-12T10:10:14;22.90;99.90
38582;DHT22;24349;53.720;10.014;2022-09-12T10:12:41;22.50;99.90
38582;DHT22;24349;53.720;10.014;2022-09-12T10:15:19;22.60;99.90
38582;DHT22;24349;53.720;10.014;2022-09-12T10:17:47;22.70;99.90
38582;DHT22;24349;53.720;10.014;2022-09-12T10:20:37;22.70;99.90
38582;DHT22;24349;53.720;10.014;2022-09-12T10:23:35;22.40;99.90
38582;DHT22;24349;53.720;10.014;2022-09-12T10:26:04;22.30;99.90
38582;DHT22;24349;53.720;10.014;2022-09-12T10:28:42;22.30;99.90
38582;DHT22;24349;53.720;10.014;2022-09-12T10:31:14;22.20;99.90
38582;DHT22;24349;53.720;10.014;2022-09-12T10:33:46;22.40;99.90
38582;DHT22;24349;53.720;10.014;2022-09-12T10:36:20;22.80;99.90
38582;DHT22;24349;53.720;10.014;2022-09-12T10:38:56;22.90;99.90
38582;DHT22;24349;53.720;10.014;2022-09-12T10:41:22;23.00;99.90
38582;DHT22;24349;53.720;10.014;2022-09-12T10:43:49;22.80;99.90
38582;DHT22;24349;53.720;10.014;2022-09-12T10:48:41;22.40;99.90
38582;DHT22;24349;53.720;10.014;2022-09-12T10:53:58;22.00;99.90
38582;DHT22;24349;53.720;10.014;2022-09-12T11:02:27;22.30;99.90
38582;DHT22;24349;53.720;10.014;2022-09-12T11:05:01;22.20;99.90
38582;DHT22;24349;53.720;10.014;2022-09-12T11:26:26;22.50;99.90
38582;DHT22;24349;53.720;10.014;2022-09-12T11:37:46;22.90;99.90
38582;DHT22;24349;53.720;10.014;2022-09-12T11:42:48;23.00;99.90
38582;DHT22;24349;53.720;10.014;2022-09-12T11:45:39;23.10;99.90
38582;DHT22;24349;53.720;10.014;2022-09-12T11:48:06;22.70;99.90
38582;DHT22;24349;53.720;10.014;2022-09-12T11:50:32;22.60;99.90
38582;DHT22;24349;53.720;10.014;2022-09-12T11:53:43;22.80;99.90
38582;DHT22;24349;53.720;10.014;2022-09-12T11:56:18;22.90;99.90
38582;DHT22;24349;53.720;10.014;2022-09-12T11:58:50;22.50;99.90
38582;DHT22;24349;53.720;10.014;2022-09-12T12:01:26;22.30;99.90
38582;DHT22;24349;53.720;10.014;2022-09-12T12:03:52;22.30;99.90
38582;DHT22;24349;53.720;10.014;2022-09-12T12:06:31;22.50;99.90
38582;DHT22;24349;53.720;10.014;2022-09-12T12:08:58;22.60;99.90
38582;DHT22;24349;53.720;10.014;2022-09-12T12:11:33;22.90;99.90
38582;DHT22;24349;53.720;10.014;2022-09-12T12:14:02;22.90;99.90
38582;DHT22;24349;53.720;10.014;2022-09-12T12:18:59;23.70;99.90
38582;DHT22;24349;53.720;10.014;2022-09-12T12:34:28;24.60;99.90
38582;DHT22;24349;53.720;10.014;2022-09-12T12:36:54;24.80;99.90
38582;DHT22;24349;53.720;10.014;2022-09-12T12:41:59;24.40;99.90
38582;DHT22;24349;53.720;10.014;2022-09-12T12:49:52;23.60;99.90
38582;DHT22;24349;53.720;10.014;2022-09-12T12:52:20;23.20;99.90
38582;DHT22;24349;53.720;10.014;2022-09-12T12:59:48;22.80;99.90
38582;DHT22;24349;53.720;10.014;2022-09-12T13:02:51;22.90;99.90
38582;DHT22;24349;53.720;10.014;2022-09-12T13:05:22;23.10;99.90
38582;DHT22;24349;53.720;10.014;2022-09-12T13:07:58;23.30;99.90
38582;DHT22;24349;53.720;10.014;2022-09-12T13:10:28;23.40;99.90
38582;DHT22;24349;53.720;10.014;2022-09-12T13:13:01;23.30;99.90
38582;DHT22;24349;53.720;10.014;2022-09-12T13:18:06;23.20;99.90
38582;DHT22;24349;53.720;10.014;2022-09-12T13:21:29;23.10;99.90
38582;DHT22;24349;53.720;10.014;2022-09-12T13:23:36;23.00;99.90
38582;DHT22;24349;53.720;10.014;2022-09-12T13:26:02;23.00;99.90
38582;DHT22;24349;53.720;10.014;2022-09-12T13:28:30;22.80;99.90
38582;DHT22;24349;53.720;10.014;2022-09-12T13:31:17;22.60;99.90
38582;DHT22;24349;53.720;10.014;2022-09-12T13:44:22;22.20;99.90
38582;DHT22;24349;53.720;10.014;2022-09-12T13:46:49;22.10;99.90
38582;DHT22;24349;53.720;10.014;2022-09-12T13:49:31;22.10;99.90
38582;DHT22;24349;53.720;10.014;2022-09-12T13:52:02;22.20;99.90
38582;DHT22;24349;53.720;10.014;2022-09-12T13:54:29;22.30;99.90
38582;DHT22;24349;53.720;10.014;2022-09-12T13:56:55;22.50;99.90
38582;DHT22;24349;53.720;10.014;2022-09-12T13:59:21;22.40;99.90
38582;DHT22;24349;53.720;10.014;2022-09-12T14:01:47;22.40;99.90
38582;DHT22;24349;53.720;10.014;2022-09-12T14:07:06;22.40;99.90
38582;DHT22;24349;53.720;10.014;2022-09-12T14:09:41;22.40;99.90
38582;DHT22;24349;53.720;10.014;2022-09-12T14:12:12;22.40;99.90
38582;DHT22;24349;53.720;10.014;2022-09-12T14:14:42;22.60;99.90
38582;DHT22;24349;53.720;10.014;2022-09-12T14:17:22;22.80;99.90
38582;DHT22;24349;53.720;10.014;2022-09-12T14:19:49;22.80;99.90
38582;DHT22;24349;53.720;10.014;2022-09-12T14:22:15;22.80;99.90
38582;DHT22;24349;53.720;10.014;2022-09-12T14:24:49;23.00;99.90
38582;DHT22;24349;53.720;10.014;2022-09-12T14:27:39;22.80;99.90
38582;DHT22;24349;53.720;10.014;2022-09-12T14:35:42;23.60;99.90
38582;DHT22;24349;53.720;10.014;2022-09-12T14:40:48;23.60;99.90
38582;DHT22;24349;53.720;10.014;2022-09-12T14:43:35;23.70;99.90
38582;DHT22;24349;53.720;10.014;2022-09-12T14:46:21;23.70;99.90
38582;DHT22;24349;53.720;10.014;2022-09-12T14:48:51;23.80;99.90
38582;DHT22;24349;53.720;10.014;2022-09-12T14:51:38;24.00;99.90
38582;DHT22;24349;53.720;10.014;2022-09-12T14:54:04;23.90;99.90
38582;DHT22;24349;53.720;10.014;2022-09-12T14:56:42;24.00;99.90
38582;DHT22;24349;53.720;10.014;2022-09-12T14:59:34;23.90;99.90
38582;DHT22;24349;53.720;10.014;2022-09-12T15:04:49;23.50;99.90
38582;DHT22;24349;53.720;10.014;2022-09-12T15:07:31;23.30;99.90
38582;DHT22;24349;53.720;10.014;2022-09-12T15:10:00;23.10;99.90
38582;DHT22;24349;53.720;10.014;2022-09-12T15:12:27;23.10;99.90
38582;DHT22;24349;53.720;10.014;2022-09-12T15:15:11;23.00;99.90
38582;DHT22;24349;53.720;10.014;2022-09-12T15:17:37;22.60;99.90
38582;DHT22;24349;53.720;10.014;2022-09-12T15:20:03;22.50;99.90
38582;DHT22;24349;53.720;10.014;2022-09-12T15:22:31;22.50;99.90
38582;DHT22;24349;53.720;10.014;2022-09-12T15:24:58;22.40;99.90
38582;DHT22;24349;53.720;10.014;2022-09-12T15:27:23;22.60;99.90
38582;DHT22;24349;53.720;10.014;2022-09-12T15:29:53;22.80;99.90
38582;DHT22;24349;53.720;10.014;2022-09-12T15:32:29;23.00;99.90
38582;DHT22;24349;53.720;10.014;2022-09-12T15:34:55;22.80;99.90
38582;DHT22;24349;53.720;10.014;2022-09-12T15:37:22;22.80;99.90
38582;DHT22;24349;53.720;10.014;2022-09-12T15:39:49;22.60;99.90
38582;DHT22;24349;53.720;10.014;2022-09-12T15:42:16;22.50;99.90
38582;DHT22;24349;53.720;10.014;2022-09-12T15:44:43;22.50;99.90
38582;DHT22;24349;53.720;10.014;2022-09-12T15:47:11;22.60;99.90
38582;DHT22;24349;53.720;10.014;2022-09-12T15:49:37;22.80;99.90
38582;DHT22;24349;53.720;10.014;2022-09-12T15:52:03;22.90;99.90
38582;DHT22;24349;53.720;10.014;2022-09-12T15:54:28;22.90;99.90
38582;DHT22;24349;53.720;10.014;2022-09-12T15:56:54;22.70;99.90
38582;DHT22;24349;53.720;10.014;2022-09-12T15:59:20;22.40;99.90
38582;DHT22;24349;53.720;10.014;2022-09-12T16:01:45;22.30;99.90
38582;DHT22;24349;53.720;10.014;2022-09-12T16:04:29;22.20;99.90
38582;DHT22;24349;53.720;10.014;2022-09-12T16:06:56;22.20;99.90
38582;DHT22;24349;53.720;10.014;2022-09-12T16:09:22;22.10;99.90
38582;DHT22;24349;53.720;10.014;2022-09-12T16:11:48;22.40;99.90
38582;DHT22;24349;53.720;10.014;2022-09-12T16:14:15;22.30;99.90
38582;DHT22;24349;53.720;10.014;2022-09-12T16:16:41;22.40;99.90
38582;DHT22;24349;53.720;10.014;2022-09-12T16:19:08;22.40;99.90
38582;DHT22;24349;53.720;10.014;2022-09-12T16:21:35;22.30;99.90
38582;DHT22;24349;53.720;10.014;2022-09-12T16:24:01;22.10;99.90
38582;DHT22;24349;53.720;10.014;2022-09-12T16:26:26;22.10;99.90
38582;DHT22;24349;53.720;10.014;2022-09-12T16:28:58;21.90;99.90
38582;DHT22;24349;53.720;10.014;2022-09-12T16:31:24;21.80;99.90
38582;DHT22;24349;53.720;10.014;2022-09-12T16:33:50;21.80;99.90
38582;DHT22;24349;53.720;10.014;2022-09-12T16:36:18;21.50;99.90
38582;DHT22;24349;53.720;10.014;2022-09-12T16:38:49;21.50;99.90
38582;DHT22;24349;53.720;10.014;2022-09-12T16:41:16;21.50;99.90
38582;DHT22;24349;53.720;10.014;2022-09-12T16:43:42;21.50;99.90
38582;DHT22;24349;53.720;10.014;2022-09-12T16:46:10;21.40;99.90
38582;DHT22;24349;53.720;10.014;2022-09-12T16:48:40;21.40;99.90
38582;DHT22;24349;53.720;10.014;2022-09-12T16:51:06;21.40;99.90
38582;DHT22;24349;53.720;10.014;2022-09-12T16:53:33;21.40;99.90
38582;DHT22;24349;53.720;10.014;2022-09-12T16:56:00;21.20;99.90
38582;DHT22;24349;53.720;10.014;2022-09-12T16:58:25;21.20;99.90
38582;DHT22;24349;53.720;10.014;2022-09-12T17:01:02;21.20;99.90
38582;DHT22;24349;53.720;10.014;2022-09-12T17:03:28;21.10;99.90
38582;DHT22;24349;53.720;10.014;2022-09-12T17:06:04;21.20;99.90
38582;DHT22;24349;53.720;10.014;2022-09-12T17:08:33;21.40;99.90
38582;DHT22;24349;53.720;10.014;2022-09-12T17:11:00;21.40;99.90
38582;DHT22;24349;53.720;10.014;2022-09-12T17:13:26;21.40;99.90
38582;DHT22;24349;53.720;10.014;2022-09-12T17:15:51;21.50;99.90
38582;DHT22;24349;53.720;10.014;2022-09-12T17:18:17;21.50;99.90
38582;DHT22;24349;53.720;10.014;2022-09-12T17:20:43;21.60;99.90
38582;DHT22;24349;53.720;10.014;2022-09-12T17:23:09;21.50;99.90
38582;DHT22;24349;53.720;10.014;2022-09-12T17:25:34;21.30;99.90
38582;DHT22;24349;53.720;10.014;2022-09-12T17:28:00;21.20;99.90
38582;DHT22;24349;53.720;10.014;2022-09-12T17:30:30;21.10;99.90
38582;DHT22;24349;53.720;10.014;2022-09-12T17:32:57;21.00;99.90
38582;DHT22;24349;53.720;10.014;2022-09-12T17:35:23;20.90;99.90
38582;DHT22;24349;53.720;10.014;2022-09-12T17:37:49;20.80;99.90
38582;DHT22;24349;53.720;10.014;2022-09-12T17:40:14;20.80;99.90
38582;DHT22;24349;53.720;10.014;2022-09-12T17:42:40;20.70;99.90
38582;DHT22;24349;53.720;10.014;2022-09-12T17:45:06;20.60;99.90
38582;DHT22;24349;53.720;10.014;2022-09-12T17:47:32;20.50;99.90
38582;DHT22;24349;53.720;10.014;2022-09-12T17:49:58;20.50;99.90
38582;DHT22;24349;53.720;10.014;2022-09-12T17:52:24;20.50;99.90
38582;DHT22;24349;53.720;10.014;2022-09-12T17:54:49;20.50;99.90
38582;DHT22;24349;53.720;10.014;2022-09-12T17:57:15;20.40;99.90
38582;DHT22;24349;53.720;10.014;2022-09-12T17:59:41;20.40;99.90
38582;DHT22;24349;53.720;10.014;2022-09-12T18:02:11;20.30;99.90
38582;DHT22;24349;53.720;10.014;2022-09-12T18:04:37;20.30;99.90
38582;DHT22;24349;53.720;10.014;2022-09-12T18:07:03;20.20;99.90
38582;DHT22;24349;53.720;10.014;2022-09-12T18:09:29;20.20;99.90
38582;DHT22;24349;53.720;10.014;2022-09-12T18:11:55;20.20;99.90
38582;DHT22;24349;53.720;10.014;2022-09-12T18:14:21;20.10;99.90
38582;DHT22;24349;53.720;10.014;2022-09-12T18:16:47;20.10;99.90
38582;DHT22;24349;53.720;10.014;2022-09-12T18:19:14;20.10;99.90